Time;durP1;ratioP1;P1;durP2;ratioP2;P2;SDS_P1;SDS_P2;PMS_P1;PMS_P2;Temp;Humidity;BMP_temperature;BMP_pressure;BME280_temperature;BME280_humidity;BME280_pressure;Samples;Min_cycle;Max_cycle;Signal;HPM_P1;HPM_P2
2021/12/02 00:01:30;;;;;;;20.58;8.88;;;;;;;-2.34;100.00;97399.81;5153451;27;20046;-50
2021/12/02 00:03:57;;;;;;;15.27;8.82;;;;;;;-2.33;100.00;97400.59;5153869;27;20053;-51
2021/12/02 00:06:23;;;;;;;21.45;9.43;;;;;;;-2.33;100.00;97400.59;5153685;27;20146;-51
2021/12/02 00:08:51;;;;;;;17.42;8.20;;;;;;;-2.38;100.00;97390.84;5153708;27;20081;-51
2021/12/02 00:11:19;;;;;;;17.00;8.65;;;;;;;-2.33;100.00;97379.94;5153712;27;20430;-53
2021/12/02 00:13:53;;;;;;;18.75;8.68;;;;;;;-2.35;100.00;97376.78;5153366;27;20057;-50
2021/12/02 00:16:27;;;;;;;20.42;7.85;;;;;;;-2.34;100.00;97372.97;5153893;27;20183;-52
2021/12/02 00:21:44;;;;;;;17.52;8.68;;;;;;;-2.44;100.00;97346.50;5153134;27;20068;-53
2021/12/02 00:24:11;;;;;;;13.90;6.43;;;;;;;-2.37;100.00;97344.09;5153444;27;20054;-50
2021/12/02 00:26:39;;;;;;;14.95;7.40;;;;;;;-2.39;100.00;97336.38;5153206;27;20068;-52
2021/12/02 00:29:07;;;;;;;15.35;7.53;;;;;;;-2.33;100.00;97326.25;5153489;27;20056;-49
2021/12/02 00:31:37;;;;;;;16.92;8.27;;;;;;;-2.33;100.00;97310.16;5153629;27;20046;-50
2021/12/02 00:34:06;;;;;;;16.00;7.95;;;;;;;-2.29;100.00;97312.97;5153464;27;20496;-52
2021/12/02 00:36:34;;;;;;;16.95;7.90;;;;;;;-2.42;100.00;97296.00;5152952;27;20050;-52
2021/12/02 00:39:04;;;;;;;16.35;8.18;;;;;;;-2.41;100.00;97281.47;5153409;27;20051;-51
2021/12/02 00:41:30;;;;;;;16.10;8.52;;;;;;;-2.30;100.00;97271.94;5153020;27;20042;-50
2021/12/02 00:43:58;;;;;;;19.52;9.52;;;;;;;-2.29;100.00;97273.50;5153270;27;20055;-51
2021/12/02 00:46:27;;;;;;;18.58;8.93;;;;;;;-2.39;100.00;97260.47;5152816;27;20420;-49
2021/12/02 00:48:53;;;;;;;18.70;8.75;;;;;;;-2.46;100.00;97249.47;5152971;27;20055;-50
2021/12/02 00:51:21;;;;;;;24.35;9.88;;;;;;;-2.33;100.00;97224.28;5152362;27;20051;-50
2021/12/02 00:53:52;;;;;;;24.17;9.85;;;;;;;-2.24;100.00;97214.22;5152839;27;20052;-50
2021/12/02 00:56:22;;;;;;;20.30;9.80;;;;;;;-2.26;100.00;97195.00;5152882;27;20049;-50
2021/12/02 00:58:49;;;;;;;19.70;9.68;;;;;;;-2.30;100.00;97177.19;5152657;27;20055;-51
2021/12/02 01:01:18;;;;;;;27.05;11.90;;;;;;;-2.21;100.00;97153.75;5152963;27;20051;-51
2021/12/02 01:03:44;;;;;;;18.95;9.25;;;;;;;-2.31;100.00;97148.78;5152921;27;20130;-50
2021/12/02 01:06:11;;;;;;;25.25;10.18;;;;;;;-2.34;100.00;97126.06;5152961;27;20082;-51
2021/12/02 01:08:39;;;;;;;21.52;11.23;;;;;;;-2.26;100.00;97117.16;5152624;27;20057;-50
2021/12/02 01:11:07;;;;;;;20.90;10.02;;;;;;;-2.23;100.00;97096.91;5153029;27;20631;-49
2021/12/02 01:13:34;;;;;;;17.10;9.32;;;;;;;-2.19;100.00;97084.41;5152820;27;20051;-50
2021/12/02 01:16:00;;;;;;;21.33;9.55;;;;;;;-2.28;100.00;97086.41;5152855;27;20057;-51
2021/12/02 01:18:27;;;;;;;21.08;10.55;;;;;;;-2.21;100.00;97065.16;5152822;27;20052;-50
2021/12/02 01:20:54;;;;;;;18.55;10.38;;;;;;;-2.11;100.00;97056.66;5152173;27;20141;-50
2021/12/02 01:23:22;;;;;;;21.02;10.63;;;;;;;-2.26;100.00;97074.22;5152804;27;20046;-50
2021/12/02 01:25:54;;;;;;;23.67;11.10;;;;;;;-2.23;100.00;97044.03;5152441;27;20094;-50
2021/12/02 01:28:22;;;;;;;22.13;10.63;;;;;;;-2.21;100.00;97031.03;5152478;27;20098;-50
2021/12/02 01:30:51;;;;;;;22.55;9.80;;;;;;;-2.10;100.00;97026.00;5152254;27;20050;-50
2021/12/02 01:33:20;;;;;;;21.80;11.30;;;;;;;-2.14;100.00;97027.81;5152480;27;20048;-49
2021/12/02 01:35:49;;;;;;;22.70;10.00;;;;;;;-2.13;100.00;97003.34;5152159;27;20050;-52
2021/12/02 01:38:16;;;;;;;21.15;10.88;;;;;;;-2.04;100.00;96995.16;5152408;27;20042;-51
2021/12/02 01:40:43;;;;;;;17.83;8.75;;;;;;;-2.10;100.00;96982.28;5152145;27;20103;-52
2021/12/02 01:43:14;;;;;;;23.05;10.25;;;;;;;-2.09;100.00;96976.59;5152032;27;20544;-49
2021/12/02 01:45:41;;;;;;;20.90;9.32;;;;;;;-2.09;100.00;96965.84;5152036;27;20131;-50
2021/12/02 01:48:10;;;;;;;20.35;11.10;;;;;;;-2.06;100.00;96945.63;5152133;27;20050;-49
2021/12/02 01:50:39;;;;;;;22.88;10.93;;;;;;;-1.99;100.00;96937.78;5152130;27;20459;-50
2021/12/02 01:53:07;;;;;;;21.17;10.15;;;;;;;-1.96;100.00;96918.31;5151889;27;20362;-51
2021/12/02 01:55:36;;;;;;;22.35;11.00;;;;;;;-1.88;100.00;96913.94;5152260;27;20042;-49
2021/12/02 01:58:05;;;;;;;23.58;11.30;;;;;;;-2.01;100.00;96919.31;5151791;27;20053;-52
2021/12/02 02:00:41;;;;;;;19.35;9.90;;;;;;;-2.03;100.00;96924.25;5152147;27;20118;-54
2021/12/02 02:03:08;;;;;;;20.27;10.57;;;;;;;-2.05;100.00;96902.31;5150650;27;20493;-53
2021/12/02 02:05:36;;;;;;;19.85;10.48;;;;;;;-1.99;100.00;96895.59;5151612;27;20047;-50
2021/12/02 02:08:05;;;;;;;24.23;10.68;;;;;;;-1.99;100.00;96873.34;5152138;27;20054;-49
2021/12/02 02:10:34;;;;;;;18.80;9.55;;;;;;;-1.94;100.00;96859.66;5151459;27;20064;-51
2021/12/02 02:13:05;;;;;;;20.13;10.15;;;;;;;-1.93;100.00;96872.75;5151813;27;20051;-52
2021/12/02 02:15:32;;;;;;;20.45;10.68;;;;;;;-1.91;100.00;96858.97;5151588;27;20046;-50
2021/12/02 02:18:02;;;;;;;18.77;9.95;;;;;;;-1.98;100.00;96859.56;5151697;27;20054;-53
2021/12/02 02:20:38;;;;;;;19.50;10.15;;;;;;;-1.93;100.00;96851.28;5151022;27;20050;-50
2021/12/02 02:23:06;;;;;;;27.45;11.77;;;;;;;-1.90;100.00;96849.78;5151431;27;20047;-53
2021/12/02 02:25:33;;;;;;;19.58;9.20;;;;;;;-2.04;100.00;96854.75;5151589;27;20134;-50
2021/12/02 02:27:59;;;;;;;19.67;10.57;;;;;;;-2.03;100.00;96843.69;5151579;27;20516;-53
2021/12/02 02:30:25;;;;;;;17.27;9.30;;;;;;;-1.99;100.00;96830.38;5151300;27;20079;-52
2021/12/02 02:32:52;;;;;;;25.45;10.93;;;;;;;-2.01;100.00;96822.66;5151292;27;20046;-53
2021/12/02 02:35:18;;;;;;;20.10;10.38;;;;;;;-2.00;100.00;96818.84;5151465;27;20049;-52
2021/12/02 02:37:45;;;;;;;19.95;8.88;;;;;;;-1.97;100.00;96804.72;5151238;27;20049;-50
2021/12/02 02:40:14;;;;;;;17.83;10.07;;;;;;;-1.93;100.00;96791.44;5151412;27;20137;-54
2021/12/02 02:42:41;;;;;;;22.40;9.88;;;;;;;-1.80;100.00;96784.09;5151085;27;20096;-50
2021/12/02 02:45:08;;;;;;;18.50;10.25;;;;;;;-1.94;100.00;96774.50;5151582;27;20047;-51
2021/12/02 02:47:34;;;;;;;20.30;10.82;;;;;;;-1.84;100.00;96767.09;5151061;27;20394;-51
2021/12/02 02:50:00;;;;;;;21.02;9.32;;;;;;;-1.96;100.00;96763.34;5151063;27;20526;-50
2021/12/02 02:52:28;;;;;;;18.92;9.50;;;;;;;-1.91;100.00;96751.56;5150837;27;20424;-52
2021/12/02 02:54:56;;;;;;;22.10;10.68;;;;;;;-1.86;100.00;96745.19;5151166;27;20046;-51
2021/12/02 02:57:25;;;;;;;18.73;8.90;;;;;;;-1.88;100.00;96734.00;5151169;27;20141;-49
2021/12/02 03:00:02;;;;;;;24.48;11.70;;;;;;;-1.81;100.00;96729.59;5150974;27;20509;-49
2021/12/02 03:02:34;;;;;;;20.30;11.05;;;;;;;-1.75;100.00;96724.75;5151369;27;20585;-50
2021/12/02 03:05:10;;;;;;;23.77;8.52;;;;;;;-1.86;100.00;96721.03;5150768;27;20047;-51
2021/12/02 03:07:41;;;;;;;17.77;9.93;;;;;;;-1.91;100.00;96706.69;5151137;27;20051;-50
2021/12/02 03:10:15;;;;;;;20.80;10.02;;;;;;;-1.86;100.00;96705.69;5150848;27;20111;-49
2021/12/02 03:12:53;;;;;;;;;;;;;;;-1.83;100.00;96698.81;5151346;27;20463;-51
2021/12/02 03:18:04;;;;;;;18.95;9.95;;;;;;;-1.93;100.00;96686.69;5154425;27;20045;-49
2021/12/02 03:20:30;;;;;;;19.10;9.75;;;;;;;-1.93;100.00;96679.41;5154166;27;20626;-49
2021/12/02 03:22:57;;;;;;;17.02;9.20;;;;;;;-1.73;100.00;96664.19;5154381;27;20501;-49
2021/12/02 03:25:24;;;;;;;18.80;9.20;;;;;;;-1.76;100.00;96672.94;5154650;27;20050;-49
2021/12/02 03:27:51;;;;;;;17.10;9.90;;;;;;;-1.70;100.00;96663.50;5154257;27;20568;-49
2021/12/02 03:30:18;;;;;;;14.73;8.45;;;;;;;-1.67;100.00;96664.72;5154023;27;20098;-53
2021/12/02 03:32:44;;;;;;;21.13;9.73;;;;;;;-1.72;100.00;96660.38;5154182;27;20051;-49
2021/12/02 03:35:10;;;;;;;16.27;9.70;;;;;;;-1.64;100.00;96653.28;5154623;27;20130;-49
2021/12/02 03:37:36;;;;;;;15.73;8.85;;;;;;;-1.54;100.00;96650.06;5154182;27;20057;-51
2021/12/02 03:40:03;;;;;;;20.10;9.13;;;;;;;-1.52;100.00;96645.13;5153987;27;20046;-50
2021/12/02 03:42:30;;;;;;;19.63;9.73;;;;;;;-1.42;100.00;96644.63;5153927;27;20051;-50
2021/12/02 03:44:57;;;;;;;15.00;9.15;;;;;;;-1.45;100.00;96639.16;5153865;27;20049;-53
2021/12/02 03:47:23;;;;;;;15.05;9.25;;;;;;;-1.38;100.00;96639.31;5153930;27;20050;-51
2021/12/02 03:49:50;;;;;;;17.02;8.60;;;;;;;-1.46;100.00;96635.69;5153792;27;20055;-51
2021/12/02 03:52:16;;;;;;;15.85;9.25;;;;;;;-1.42;100.00;96627.72;5154254;27;20046;-53
2021/12/02 03:54:42;;;;;;;17.50;9.55;;;;;;;-1.38;100.00;96611.66;5153763;27;20401;-51
2021/12/02 03:57:08;;;;;;;18.67;9.50;;;;;;;-1.31;100.00;96604.53;5154195;27;20421;-51
2021/12/02 03:59:35;;;;;;;13.93;8.20;;;;;;;-1.28;100.00;96603.06;5153598;27;20052;-51
2021/12/02 04:02:02;;;;;;;14.13;7.53;;;;;;;-1.25;100.00;96597.00;5153923;27;20055;-50
2021/12/02 04:04:29;;;;;;;15.45;8.23;;;;;;;-1.11;100.00;96591.16;5153627;27;20544;-50
2021/12/02 04:06:55;;;;;;;13.25;7.10;;;;;;;-1.08;100.00;96583.16;5153487;27;20050;-49
2021/12/02 04:09:22;;;;;;;14.20;8.93;;;;;;;-1.15;100.00;96579.53;5153554;27;20119;-50
2021/12/02 04:11:55;;;;;;;13.88;7.90;;;;;;;-1.11;100.00;96583.09;5153788;27;20420;-51
2021/12/02 04:14:25;;;;;;;16.65;8.70;;;;;;;-1.06;100.00;96564.78;5153380;27;20536;-53
2021/12/02 04:16:53;;;;;;;14.98;7.15;;;;;;;-1.04;100.00;96567.88;5153446;27;20061;-52
2021/12/02 04:19:20;;;;;;;15.02;7.72;;;;;;;-1.11;100.00;96561.56;5153564;27;20062;-50
2021/12/02 04:21:47;;;;;;;15.32;8.15;;;;;;;-1.17;100.00;96546.84;5152733;27;20042;-50
2021/12/02 04:24:13;;;;;;;11.23;6.97;;;;;;;-1.05;100.00;96544.81;5153691;27;20046;-51
2021/12/02 04:26:40;;;;;;;11.68;7.22;;;;;;;-1.04;100.00;96540.22;5152444;27;20137;-51
2021/12/02 04:29:06;;;;;;;11.60;7.03;;;;;;;-0.95;100.00;96524.66;5153077;27;20047;-52
2021/12/02 04:31:33;;;;;;;15.32;7.93;;;;;;;-0.98;100.00;96520.75;5153207;27;20091;-53
2021/12/02 04:34:00;;;;;;;14.82;8.27;;;;;;;-0.92;100.00;96523.16;5152891;27;20046;-50
2021/12/02 04:36:26;;;;;;;11.75;7.13;;;;;;;-0.86;100.00;96519.06;5152895;27;20051;-52
2021/12/02 04:38:52;;;;;;;11.65;6.70;;;;;;;-0.74;100.00;96516.22;5153049;27;20055;-49
2021/12/02 04:41:18;;;;;;;10.77;7.22;;;;;;;-0.86;100.00;96511.78;5153054;27;20051;-51
2021/12/02 04:43:45;;;;;;;12.88;7.30;;;;;;;-0.72;100.00;96498.59;5152821;27;20043;-53
2021/12/02 04:46:11;;;;;;;11.88;7.47;;;;;;;-0.78;100.00;96504.63;5153090;27;20057;-52
2021/12/02 04:48:37;;;;;;;13.13;7.88;;;;;;;-0.77;100.00;96500.78;5152752;27;20103;-50
2021/12/02 04:51:04;;;;;;;10.93;6.80;;;;;;;-0.65;100.00;96489.09;5153021;27;20086;-54
2021/12/02 04:53:30;;;;;;;13.70;8.23;;;;;;;-0.58;100.00;96478.47;5152787;27;20050;-53
2021/12/02 04:55:57;;;;;;;14.52;8.35;;;;;;;-0.51;100.00;96486.66;5152837;27;20046;-50
2021/12/02 04:58:23;;;;;;;14.70;7.80;;;;;;;-0.43;100.00;96482.16;5152609;27;20050;-52
2021/12/02 05:00:50;;;;;;;14.13;8.38;;;;;;;-0.38;100.00;96489.97;5152633;27;20059;-50
2021/12/02 05:03:16;;;;;;;14.07;8.40;;;;;;;-0.46;100.00;96489.06;5152700;27;20054;-52
2021/12/02 05:05:42;;;;;;;15.20;7.80;;;;;;;-0.53;100.00;96473.56;5152391;27;20398;-53
2021/12/02 05:08:09;;;;;;;11.38;7.60;;;;;;;-0.45;100.00;96465.63;5152625;27;20047;-51
2021/12/02 05:10:35;;;;;;;10.27;6.97;;;;;;;-0.29;100.00;96458.97;5152430;27;20050;-54
2021/12/02 05:13:02;;;;;;;11.65;7.85;;;;;;;-0.27;100.00;96453.22;5152691;27;20046;-51
2021/12/02 05:15:28;;;;;;;12.27;7.68;;;;;;;-0.29;100.00;96460.91;5152240;27;20042;-52
2021/12/02 05:17:54;;;;;;;11.75;7.10;;;;;;;-0.24;100.00;96450.59;5152268;27;20181;-52
2021/12/02 05:20:21;;;;;;;18.88;8.07;;;;;;;-0.16;100.00;96469.56;5151521;27;20055;-52
2021/12/02 05:22:48;;;;;;;14.18;7.47;;;;;;;-0.19;100.00;96470.28;5151871;27;20051;-49
2021/12/02 05:25:15;;;;;;;11.20;7.53;;;;;;;0.29;100.00;96452.53;5152088;27;20400;-56
2021/12/02 05:27:41;;;;;;;11.18;6.70;;;;;;;0.51;100.00;96440.13;5151938;27;20227;-57
2021/12/02 05:30:09;;;;;;;8.52;4.78;;;;;;;0.98;100.00;96441.47;5152096;27;20047;-58
2021/12/02 05:32:35;;;;;;;8.55;6.00;;;;;;;1.85;100.00;96436.53;5151566;27;20111;-58
2021/12/02 05:35:03;;;;;;;12.90;6.68;;;;;;;3.00;100.00;96448.81;5151650;27;20057;-59
2021/12/02 05:37:29;;;;;;;11.38;5.47;;;;;;;4.00;100.00;96492.34;5152093;27;20050;-58
2021/12/02 05:39:56;;;;;;;9.43;5.82;;;;;;;4.95;100.00;96579.50;5151992;27;20061;-59
2021/12/02 05:42:23;;;;;;;11.68;5.55;;;;;;;5.56;100.00;96728.78;5151582;27;20046;-60
2021/12/02 05:44:49;;;;;;;12.32;6.13;;;;;;;5.55;100.00;96879.44;5152212;27;20051;-60
2021/12/02 05:47:15;;;;;;;7.35;5.05;;;;;;;5.51;100.00;96894.19;5151929;27;20047;-61
2021/12/02 05:49:42;;;;;;;9.00;5.75;;;;;;;5.85;100.00;96846.41;5152166;27;20535;-61
2021/12/02 05:52:08;;;;;;;9.98;5.53;;;;;;;6.24;100.00;96758.56;5151630;27;20051;-62
2021/12/02 05:54:34;;;;;;;12.27;5.97;;;;;;;6.42;100.00;96602.56;5151870;27;20058;-62
2021/12/02 05:57:01;;;;;;;7.05;5.07;;;;;;;6.53;100.00;96538.72;5151580;27;20050;-61
2021/12/02 05:59:28;;;;;;;7.95;5.15;;;;;;;6.66;100.00;96522.66;5151347;27;20057;-59
2021/12/02 06:01:54;;;;;;;7.65;5.30;;;;;;;6.48;100.00;96418.63;5151393;27;20046;-60
2021/12/02 06:04:20;;;;;;;9.23;6.07;;;;;;;6.03;100.00;96381.38;5151378;27;20057;-51
2021/12/02 06:06:49;;;;;;;10.82;6.65;;;;;;;4.37;100.00;96439.66;5151591;27;20525;-53
2021/12/02 06:09:18;;;;;;;9.52;5.57;;;;;;;3.03;100.00;96670.00;5151349;27;20077;-52
2021/12/02 06:11:44;;;;;;;14.45;6.85;;;;;;;2.22;100.00;96864.66;5151601;27;20495;-53
2021/12/02 06:14:13;;;;;;;8.23;5.22;;;;;;;1.85;100.00;96905.84;5151449;27;20057;-51
2021/12/02 06:16:40;;;;;;;10.40;5.97;;;;;;;1.44;100.00;96862.38;5151428;27;20536;-51
2021/12/02 06:19:06;;;;;;;14.23;7.40;;;;;;;1.37;100.00;96790.13;5151503;27;20057;-52
2021/12/02 06:21:33;;;;;;;15.57;6.82;;;;;;;1.30;100.00;96722.53;5150803;27;20444;-54
2021/12/02 06:24:01;;;;;;;8.52;6.55;;;;;;;1.34;100.00;96680.19;5150941;27;20106;-52
2021/12/02 06:26:28;;;;;;;9.50;6.53;;;;;;;1.26;100.00;96621.84;5150478;27;20051;-53
2021/12/02 06:28:54;;;;;;;8.15;6.10;;;;;;;1.18;100.00;96588.59;5148629;27;20054;-52
2021/12/02 06:31:21;;;;;;;9.68;6.47;;;;;;;1.06;100.00;96564.50;5143942;27;20093;-50
2021/12/02 06:33:48;;;;;;;11.60;6.10;;;;;;;1.01;100.00;96532.47;5150066;27;20051;-53
2021/12/02 06:36:14;;;;;;;11.57;6.28;;;;;;;1.12;100.00;96500.22;5143316;27;20083;-50
2021/12/02 06:38:41;;;;;;;9.73;6.90;;;;;;;1.25;100.00;96490.72;5150720;27;20049;-54
2021/12/02 06:41:08;;;;;;;10.55;7.10;;;;;;;1.25;100.00;96477.25;5150858;27;20069;-53
2021/12/02 06:43:34;;;;;;;12.48;8.45;;;;;;;1.34;100.00;96466.16;5150325;27;20068;-53
2021/12/02 06:46:01;;;;;;;10.95;7.50;;;;;;;1.36;100.00;96453.81;5150151;27;20420;-53
2021/12/02 06:48:27;;;;;;;13.68;7.88;;;;;;;1.48;100.00;96446.63;5149579;27;20043;-52
2021/12/02 06:50:54;;;;;;;12.27;8.30;;;;;;;1.42;100.00;96444.25;5153685;27;20069;-54
2021/12/02 06:53:20;;;;;;;15.05;9.10;;;;;;;1.52;100.00;96445.50;5154132;27;20100;-50
2021/12/02 06:55:46;;;;;;;19.95;10.88;;;;;;;1.50;100.00;96438.91;5153495;27;20519;-54
2021/12/02 06:58:13;;;;;;;17.67;10.73;;;;;;;1.41;100.00;96442.72;5153703;27;20058;-53
2021/12/02 07:00:39;;;;;;;15.02;11.07;;;;;;;1.54;100.00;96426.25;5154044;27;20515;-54
2021/12/02 07:03:05;;;;;;;20.02;12.93;;;;;;;1.48;100.00;96425.03;5153924;27;20111;-49
2021/12/02 07:05:33;;;;;;;22.90;13.98;;;;;;;1.56;100.00;96427.41;5154012;27;20050;-51
2021/12/02 07:08:00;;;;;;;21.75;12.73;;;;;;;1.54;100.00;96418.16;5153762;27;20053;-53
2021/12/02 07:10:28;;;;;;;27.08;16.77;;;;;;;1.61;100.00;96416.28;5153894;27;20051;-51
2021/12/02 07:12:56;;;;;;;26.83;14.65;;;;;;;1.68;100.00;96420.97;5153975;27;20095;-53
2021/12/02 07:15:29;;;;;;;28.00;18.23;;;;;;;1.70;100.00;96417.88;5154178;27;20424;-50
2021/12/02 07:17:57;;;;;;;29.85;15.93;;;;;;;1.75;100.00;96414.84;5153951;27;20050;-51
2021/12/02 07:20:27;;;;;;;24.50;16.85;;;;;;;1.85;100.00;96414.91;5154058;27;20051;-53
2021/12/02 07:22:53;;;;;;;41.92;20.75;;;;;;;1.82;100.00;96409.50;5153483;27;20141;-52
2021/12/02 07:25:20;;;;;;;34.08;19.13;;;;;;;1.73;100.00;96409.78;5153551;27;20057;-53
2021/12/02 07:27:47;;;;;;;36.20;21.60;;;;;;;1.80;100.00;96417.19;5153295;27;20057;-50
2021/12/02 07:30:15;;;;;;;43.60;21.23;;;;;;;1.86;100.00;96419.16;5153292;27;20505;-53
2021/12/02 07:32:42;;;;;;;33.90;20.48;;;;;;;1.83;100.00;96409.13;5154010;27;20050;-51
2021/12/02 07:35:10;;;;;;;33.75;19.83;;;;;;;1.89;100.00;96404.91;5146266;27;20105;-50
2021/12/02 07:37:36;;;;;;;38.45;20.70;;;;;;;2.03;100.00;96404.25;5143676;27;20049;-50
2021/12/02 07:40:04;;;;;;;48.38;24.75;;;;;;;2.06;100.00;96418.91;5153544;27;20054;-52
2021/12/02 07:42:32;;;;;;;43.15;24.25;;;;;;;2.11;100.00;96405.06;5153499;27;20042;-55
2021/12/02 07:44:59;;;;;;;43.30;25.05;;;;;;;2.11;100.00;96422.06;5153312;27;20046;-50
2021/12/02 07:47:26;;;;;;;53.80;30.10;;;;;;;2.25;100.00;96421.38;5152945;27;20042;-53
2021/12/02 07:49:52;;;;;;;39.58;25.15;;;;;;;2.29;100.00;96416.75;5151398;27;20095;-54
2021/12/02 07:52:21;;;;;;;46.03;27.48;;;;;;;2.32;100.00;96432.22;5153435;27;20047;-52
2021/12/02 07:54:50;;;;;;;35.55;21.88;;;;;;;2.30;100.00;96426.44;5153173;27;20050;-52
2021/12/02 07:57:17;;;;;;;39.40;23.58;;;;;;;2.26;100.00;96425.63;5153037;27;20042;-51
2021/12/02 07:59:45;;;;;;;44.55;23.25;;;;;;;2.36;100.00;96435.72;5152929;27;20046;-52
2021/12/02 08:02:14;;;;;;;35.70;20.92;;;;;;;2.36;100.00;96427.59;5151592;27;20046;-54
2021/12/02 08:04:40;;;;;;;26.13;17.48;;;;;;;2.37;100.00;96428.41;5153517;27;20050;-52
2021/12/02 08:07:07;;;;;;;28.73;18.15;;;;;;;2.44;100.00;96433.84;5153566;27;20047;-54
2021/12/02 08:09:33;;;;;;;25.48;17.25;;;;;;;2.47;100.00;96438.50;5153193;27;20090;-55
2021/12/02 08:12:00;;;;;;;29.85;17.55;;;;;;;2.48;100.00;96433.88;5145961;27;20047;-54
2021/12/02 08:14:26;;;;;;;32.50;18.83;;;;;;;2.43;100.00;96434.97;5151674;27;20051;-50
2021/12/02 08:16:53;;;;;;;35.35;20.13;;;;;;;2.52;100.00;96430.00;5153261;27;20050;-51
2021/12/02 08:19:20;;;;;;;32.22;18.77;;;;;;;2.69;100.00;96431.25;5144000;27;20051;-54
2021/12/02 08:21:46;;;;;;;25.90;18.08;;;;;;;2.71;100.00;96444.41;5148931;27;20564;-52
2021/12/02 08:24:13;;;;;;;28.50;18.60;;;;;;;2.77;100.00;96446.38;5152025;27;20145;-50
2021/12/02 08:26:39;;;;;;;36.63;19.95;;;;;;;2.88;100.00;96451.84;5143545;27;20523;-54
2021/12/02 08:29:06;;;;;;;33.15;20.10;;;;;;;2.91;100.00;96450.31;5143869;27;20051;-52
2021/12/02 08:31:33;;;;;;;35.72;20.52;;;;;;;2.92;100.00;96457.25;5151814;27;20050;-54
2021/12/02 08:34:00;;;;;;;29.95;20.23;;;;;;;2.91;100.00;96467.31;5151742;27;20062;-52
2021/12/02 08:36:30;;;;;;;29.77;20.17;;;;;;;2.93;100.00;96470.44;5152804;27;20042;-53
2021/12/02 08:38:58;;;;;;;29.88;19.83;;;;;;;3.11;100.00;96459.66;5152266;27;20091;-55
2021/12/02 08:41:24;;;;;;;30.45;17.55;;;;;;;3.12;100.00;96471.25;5147557;27;20058;-52
2021/12/02 08:43:52;;;;;;;30.70;19.92;;;;;;;3.11;100.00;96477.84;5135946;27;20077;-55
2021/12/02 08:46:21;;;;;;;26.98;16.40;;;;;;;3.16;100.00;96480.94;5134497;27;20043;-53
2021/12/02 08:48:50;;;;;;;25.70;18.00;;;;;;;3.35;100.00;96471.72;5153004;27;20058;-54
2021/12/02 08:51:17;;;;;;;34.90;19.67;;;;;;;3.46;100.00;96471.75;5152466;27;20051;-55
2021/12/02 08:53:43;;;;;;;31.35;18.88;;;;;;;3.46;100.00;96482.56;5152365;27;20416;-56
2021/12/02 08:56:10;;;;;;;30.77;20.80;;;;;;;3.46;100.00;96486.06;5152645;27;20056;-54
2021/12/02 08:58:38;;;;;;;25.23;17.65;;;;;;;3.47;100.00;96493.03;5151378;27;20489;-52
2021/12/02 09:01:04;;;;;;;24.02;17.55;;;;;;;3.60;100.00;96500.78;5132852;27;20120;-53
2021/12/02 09:03:30;;;;;;;31.35;17.48;;;;;;;3.65;100.00;96497.72;5152369;27;20042;-55
2021/12/02 09:05:56;;;;;;;26.73;15.73;;;;;;;3.68;100.00;96505.84;5152362;27;20531;-55
2021/12/02 09:08:24;;;;;;;27.83;17.35;;;;;;;3.66;100.00;96507.38;5152213;27;20049;-55
2021/12/02 09:10:51;;;;;;;27.25;17.55;;;;;;;3.70;100.00;96503.53;5152260;27;20077;-53
2021/12/02 09:13:17;;;;;;;27.77;16.52;;;;;;;3.72;100.00;96503.91;5151711;27;20051;-56
2021/12/02 09:15:43;;;;;;;30.73;16.55;;;;;;;3.78;100.00;96517.88;5152169;27;20561;-56
2021/12/02 09:18:10;;;;;;;25.77;16.88;;;;;;;3.84;100.00;96518.28;5152343;27;20557;-55
2021/12/02 09:20:36;;;;;;;27.50;16.92;;;;;;;3.85;100.00;96517.09;5152227;27;20051;-55
2021/12/02 09:23:03;;;;;;;22.83;16.73;;;;;;;3.78;100.00;96520.59;5151361;27;20095;-54
2021/12/02 09:25:30;;;;;;;27.73;16.27;;;;;;;3.71;100.00;96510.50;5151950;27;20142;-54
2021/12/02 09:27:56;;;;;;;25.00;16.20;;;;;;;3.70;100.00;96516.31;5152119;27;20042;-57
2021/12/02 09:30:24;;;;;;;25.30;16.08;;;;;;;3.78;100.00;96507.81;5152104;27;20050;-55
2021/12/02 09:32:51;;;;;;;25.67;17.65;;;;;;;3.87;100.00;96509.38;5152060;27;20054;-57
2021/12/02 09:35:17;;;;;;;26.10;15.18;;;;;;;3.86;100.00;96505.88;5151878;27;20081;-56
2021/12/02 09:37:44;;;;;;;26.15;17.60;;;;;;;3.97;100.00;96509.38;5151703;27;20042;-54
2021/12/02 09:40:13;;;;;;;24.92;16.80;;;;;;;4.06;100.00;96503.56;5151815;27;20042;-54
2021/12/02 09:42:40;;;;;;;23.98;16.08;;;;;;;4.03;100.00;96495.44;5151742;27;20058;-56
2021/12/02 09:45:07;;;;;;;26.73;16.42;;;;;;;4.03;100.00;96506.28;5151616;27;20046;-54
2021/12/02 09:47:36;;;;;;;21.23;15.18;;;;;;;4.04;100.00;96503.19;5151788;27;20073;-53
2021/12/02 09:50:08;;;;;;;21.35;15.40;;;;;;;4.06;100.00;96511.69;5151383;27;20047;-52
2021/12/02 09:52:36;;;;;;;21.92;15.98;;;;;;;4.04;100.00;96519.47;5151631;27;20137;-54
2021/12/02 09:55:05;;;;;;;24.75;14.98;;;;;;;4.04;100.00;96519.47;5151612;27;20547;-55
2021/12/02 09:57:36;;;;;;;24.77;14.35;;;;;;;4.03;100.00;96531.44;5151590;27;20485;-53
2021/12/02 10:00:06;;;;;;;19.48;14.95;;;;;;;4.10;100.00;96533.38;5151473;27;20054;-55
2021/12/02 10:02:39;;;;;;;25.63;15.85;;;;;;;4.07;100.00;96534.19;5151784;27;20050;-55
2021/12/02 10:05:10;;;;;;;21.63;13.57;;;;;;;4.06;100.00;96554.31;5151627;27;20051;-54
2021/12/02 10:07:52;;;;;;;20.88;14.05;;;;;;;4.17;100.00;96542.31;5151155;27;20042;-55
2021/12/02 10:10:27;;;;;;;20.02;13.27;;;;;;;4.19;100.00;96552.78;5151432;27;20050;-55
2021/12/02 10:13:07;;;;;;;21.58;14.27;;;;;;;4.25;100.00;96553.94;5151510;27;20089;-54
2021/12/02 10:15:37;;;;;;;19.45;13.10;;;;;;;4.22;100.00;96563.63;5150695;27;20050;-52
2021/12/02 10:18:10;;;;;;;21.10;12.00;;;;;;;4.24;100.00;96560.53;5150938;27;20054;-54
2021/12/02 10:20:40;;;;;;;17.40;11.75;;;;;;;4.37;100.00;96566.38;5151514;27;20054;-53
2021/12/02 10:23:19;;;;;;;17.48;12.30;;;;;;;4.25;100.00;96575.63;5150651;27;20054;-55
2021/12/02 10:25:48;;;;;;;21.33;12.23;;;;;;;4.22;100.00;96579.88;5146043;27;20078;-53
2021/12/02 10:28:17;;;;;;;18.15;11.77;;;;;;;4.27;100.00;96577.97;5151034;27;20469;-55
2021/12/02 10:30:46;;;;;;;18.42;12.57;;;;;;;4.34;100.00;96573.31;5151080;27;20050;-51
2021/12/02 10:33:13;;;;;;;21.70;11.95;;;;;;;4.35;100.00;96588.44;5151245;27;20568;-53
2021/12/02 10:35:42;;;;;;;19.52;12.75;;;;;;;4.36;100.00;96589.19;5151003;27;20051;-53
2021/12/02 10:38:34;;;;;;;17.42;11.98;;;;;;;4.41;100.00;96586.13;5150606;27;20516;-51
2021/12/02 10:41:04;;;;;;;20.08;12.93;;;;;;;4.49;100.00;96587.66;5150857;27;20059;-52
2021/12/02 10:43:30;;;;;;;21.65;11.95;;;;;;;4.59;100.00;96605.88;5150794;27;20047;-54
2021/12/02 10:46:16;;;;;;;21.42;11.40;;;;;;;4.55;100.00;96602.41;5150259;27;20050;-53
2021/12/02 10:48:45;;;;;;;18.75;11.40;;;;;;;4.51;100.00;96612.47;5146172;27;20050;-53
2021/12/02 10:51:32;;;;;;;15.45;11.02;;;;;;;4.56;100.00;96624.88;5150633;27;20062;-52
2021/12/02 10:53:59;;;;;;;16.73;10.90;;;;;;;4.59;100.00;96627.59;5148321;27;20058;-52
2021/12/02 10:56:32;;;;;;;17.38;10.65;;;;;;;4.76;100.00;96623.31;5144916;27;20047;-49
2021/12/02 10:58:58;;;;;;;17.92;11.20;;;;;;;4.83;100.00;96628.78;5147577;27;20071;-53
2021/12/02 11:01:38;;;;;;;17.08;11.05;;;;;;;4.81;100.00;96641.94;5149967;27;20505;-52
2021/12/02 11:04:05;;;;;;;17.88;11.18;;;;;;;4.77;100.00;96654.75;5130711;27;20096;-54
2021/12/02 11:06:41;;;;;;;18.80;11.57;;;;;;;4.78;100.00;96655.53;5144502;27;20049;-51
2021/12/02 11:09:23;;;;;;;20.50;11.98;;;;;;;4.57;100.00;96670.63;5150338;27;20133;-51
2021/12/02 11:12:08;;;;;;;18.88;10.82;;;;;;;4.57;100.00;96669.84;5150673;27;20046;-51
2021/12/02 11:14:35;;;;;;;26.05;12.23;;;;;;;4.54;100.00;96662.50;5149670;27;20047;-54
2021/12/02 11:17:10;;;;;;;23.40;13.13;;;;;;;4.51;100.00;96649.69;5149376;27;20050;-53
2021/12/02 11:19:37;;;;;;;24.58;12.57;;;;;;;4.45;100.00;96657.44;5148658;27;20137;-54
2021/12/02 11:22:09;;;;;;;24.38;12.82;;;;;;;4.48;100.00;96652.00;5129728;27;20049;-53
2021/12/02 11:24:37;;;;;;;23.50;13.10;;;;;;;4.47;100.00;96653.16;5149789;27;20134;-51
2021/12/02 11:27:09;;;;;;;23.40;12.48;;;;;;;4.44;100.00;96647.75;5150348;27;20503;-52